Flight Track Log - Related Links

Times and Time Zones

All times are in EDT time to prevent confusion due to time zone crossing. See the JBU881 flight status page for this flight to view local times or setup timezone preferences in your user account.

Time Position Orientation Groundspeed Altitude Reporting Facility
EDT Latitude Longitude Course Direction KTS MPH feet Rate Location/Type
Tue 07:25:58 AM 40.6500 -73.7333 128° Southeast 180 207 1,900  Level New York TRACON
Tue 07:27:40 AM 40.6175 -73.5953 107° East 223 257 6,000 2,356 Climbing New York Center
Tue 07:28:00 AM 40.3689 -73.3117 131° Southeast  Level FlightAware Approximate
Tue 07:28:41 AM 40.5644 -73.5467 145° Southeast 238 274 8,300  Level New York Center
Tue 07:29:00 AM 40.2913 -73.1907 128° Southeast  Level FlightAware Approximate
Tue 07:29:41 AM 40.4931 -73.4864 147° Southeast 271 312 10,800  Level New York Center
Tue 07:30:00 AM 40.2169 -73.0664 128° Southeast  Level FlightAware Approximate
Tue 07:30:41 AM 40.4258 -73.4183 142° Southeast 323 372 11,800  Level New York Center
Tue 07:31:00 AM 40.1521 -72.9585 128° Southeast  Level FlightAware Approximate
Tue 07:31:43 AM 40.3617 -73.3042 126° Southeast 351 404 14,400  Level New York Center
Tue 07:32:40 AM 40.2992 -73.1986 128° Southeast 363 418 16,200 1,780 Climbing New York Center
Tue 07:33:41 AM 40.2219 -73.1033 137° Southeast 375 432 17,900 1,537 Climbing New York Center
Tue 07:34:41 AM 40.1231 -73.0431 155° Southeast 375 432 19,300 1,475 Climbing New York Center
Tue 07:35:43 AM 40.0203 -72.9800 155° Southeast 387 445 20,900 1,513 Climbing New York Center
Tue 07:36:40 AM 39.9150 -72.9144 154° Southeast 410 472 22,300 1,525 Climbing New York Center
Tue 07:37:41 AM 39.8081 -72.8461 154° Southeast 423 487 23,900 1,279 Climbing New York Center
Tue 07:38:42 AM 39.7008 -72.7836 156° South 423 487 24,900 1,041 Climbing New York Center
Tue 07:39:42 AM 39.5914 -72.7158 154° Southeast 429 494 26,000 992 Climbing New York Center
Tue 07:40:43 AM 39.4800 -72.6428 153° Southeast 440 506 26,900 1,068 Climbing New York Center
Tue 07:41:40 AM 39.3644 -72.5781 157° South 445 512 28,100 1,068 Climbing New York Center
Tue 07:42:41 AM 39.2508 -72.5053 154° Southeast 450 518 29,000 1,073 Climbing New York Center
Tue 07:43:43 AM 39.1372 -72.4328 154° Southeast 450 518 30,300 1,200 Climbing New York Center
Tue 07:44:41 AM 39.0233 -72.3686 156° South 450 518 31,400 950 Climbing New York Center
Tue 07:45:43 AM 38.9117 -72.2994 154° Southeast 450 518 32,200 942 Climbing New York Center
Tue 07:46:42 AM 38.7981 -72.2225 152° Southeast 450 518 33,300 966 Climbing New York Center
Tue 07:47:41 AM 38.6861 -72.1614 157° South 450 518 34,100 800 Climbing New York Center
Tue 07:48:42 AM 38.5764 -72.0956 155° Southeast 445 512 34,900 446 Climbing New York Center
Tue 07:49:42 AM 38.4667 -72.0300 155° Southeast 435 501 35,000 50 Climbing New York Center
Tue 07:50:43 AM 38.3547 -71.9750 159° South 435 501 35,000  Level New York Center
Tue 07:51:43 AM 38.2447 -71.9017 152° Southeast 440 506 35,000 -51 Level New York Center
Tue 07:52:40 AM 38.1350 -71.8339 154° Southeast 440 506 34,900  Descending New York Center
Tue 07:53:41 AM 38.0231 -71.7664 155° Southeast 440 506 35,000 50 Climbing New York Center
Tue 07:54:41 AM 37.9108 -71.7017 156° South 440 506 35,000  Level New York Center
Tue 07:55:43 AM 37.7989 -71.6344 155° Southeast 440 506 35,000  Level New York Center
Tue 07:56:43 AM 37.6928 -71.5728 155° Southeast 435 501 35,000  Level New York Center
Tue 07:57:41 AM 37.5869 -71.5164 157° South 429 494 35,000  Level New York Center
Tue 07:58:42 AM 37.4808 -71.4472 153° Southeast 419 482 35,000  Level New York Center
Tue 07:59:43 AM 37.3750 -71.3808 153° Southeast 419 482 35,000  Level New York Center
Tue 08:00:43 AM 37.2708 -71.3225 156° South 419 482 35,000  Level New York Center
Tue 08:01:42 AM 37.1669 -71.2619 155° Southeast 419 482 35,000  Level New York Center
Tue 08:02:41 AM 37.0733 -71.2039 154° Southeast 402 463 35,000  Level New York Center
Tue 08:04:00 AM 36.9317 -71.1227 155° Southeast  Level FlightAware Approximate
Tue 08:11:00 AM 36.1817 -70.6855 155° Southeast  Level FlightAware Approximate
Tue 08:12:00 AM 36.0748 -70.6228 155° Southeast  Level FlightAware Approximate
Tue 08:13:00 AM 35.9679 -70.5602 155° Southeast  Level FlightAware Approximate
Tue 08:14:00 AM 35.8609 -70.4978 155° Southeast  Level FlightAware Approximate
Tue 08:15:00 AM 35.7539 -70.4356 155° Southeast  Level FlightAware Approximate
Tue 08:16:00 AM 35.6386 -70.4037 168° South  Level FlightAware Approximate
Tue 08:17:00 AM 35.5230 -70.3730 168° South  Level FlightAware Approximate
Tue 08:18:00 AM 35.4073 -70.3424 168° South  Level FlightAware Approximate
Tue 08:19:00 AM 35.2917 -70.3119 168° South  Level FlightAware Approximate
Tue 08:19:22 AM 35.7667 -70.4500 168° South 424 488 35,000  Level New York Oceanic (ODAPS)
Tue 08:20:00 AM 35.1760 -70.2815 168° South  Level FlightAware Approximate
Tue 08:21:00 AM 35.0603 -70.2512 168° South  Level FlightAware Approximate
Tue 08:22:00 AM 34.9446 -70.2209 168° South  Level FlightAware Approximate
Tue 08:23:00 AM 34.8290 -70.1908 168° South  Level FlightAware Approximate
Tue 08:24:00 AM 34.7133 -70.1607 168° South  Level FlightAware Approximate
Tue 08:25:00 AM 34.5925 -70.1437 168° South 424 488 35,000  Level FlightAware Transoceanic
Tue 08:26:00 AM 34.4750 -70.1136 168° South 424 488 35,000  Level FlightAware Transoceanic
Tue 08:27:00 AM 34.3575 -70.0835 168° South 424 488 35,000  Level FlightAware Transoceanic
Tue 08:28:00 AM 34.2401 -70.0535 168° South 424 488 35,000  Level FlightAware Transoceanic
Tue 08:29:00 AM 34.1226 -70.0236 168° South 424 488 35,000  Level FlightAware Transoceanic
Tue 08:30:00 AM 34.0051 -69.9938 168° South 424 488 35,000  Level FlightAware Transoceanic
Tue 08:31:00 AM 33.8876 -69.9641 168° South 424 488 35,000  Level FlightAware Transoceanic
Tue 08:32:00 AM 33.7701 -69.9344 168° South 424 488 35,000  Level FlightAware Transoceanic
Tue 08:33:00 AM 33.6526 -69.9049 168° South 424 488 35,000  Level FlightAware Transoceanic
Tue 08:34:00 AM 33.5351 -69.8754 168° South 424 488 35,000  Level FlightAware Transoceanic
Tue 08:35:00 AM 33.4175 -69.8460 168° South 424 488 35,000  Level FlightAware Transoceanic
Tue 08:36:00 AM 33.3000 -69.8167 168° South 424 488 35,000  Level FlightAware Transoceanic
Tue 08:37:00 AM 33.1858 -69.7882 168° South 424 488 35,000  Level FlightAware Transoceanic
Tue 08:38:00 AM 33.0715 -69.7598 168° South 424 488 35,000  Level FlightAware Transoceanic
Tue 08:39:00 AM 32.9573 -69.7314 168° South 424 488 35,000  Level FlightAware Transoceanic
Tue 08:40:00 AM 32.8431 -69.7032 168° South 424 488 35,000  Level FlightAware Transoceanic
Tue 08:41:00 AM 32.7288 -69.6750 168° South 424 488 35,000  Level FlightAware Transoceanic
Tue 08:42:00 AM 32.6146 -69.6468 168° South 424 488 35,000  Level FlightAware Transoceanic
Tue 08:43:00 AM 32.5003 -69.6188 168° South 424 488 35,000  Level FlightAware Transoceanic
Tue 08:44:00 AM 32.3860 -69.5908 168° South 424 488 35,000  Level FlightAware Transoceanic
Tue 08:45:00 AM 32.2718 -69.5629 168° South 424 488 35,000  Level FlightAware Transoceanic
Tue 08:46:00 AM 32.1575 -69.5351 168° South 424 488 35,000  Level FlightAware Transoceanic
Tue 08:47:00 AM 32.0432 -69.5073 168° South 424 488 35,000  Level FlightAware Transoceanic
Tue 08:48:00 AM 31.9289 -69.4796 168° South 424 488 35,000  Level FlightAware Transoceanic
Tue 08:49:00 AM 31.8146 -69.4520 168° South 424 488 35,000  Level FlightAware Transoceanic
Tue 08:50:00 AM 31.7003 -69.4244 168° South 424 488 35,000  Level FlightAware Transoceanic
Tue 08:51:00 AM 31.5860 -69.3969 168° South 424 488 35,000  Level FlightAware Transoceanic
Tue 08:52:00 AM 31.4717 -69.3695 168° South 424 488 35,000  Level FlightAware Transoceanic
Tue 08:53:00 AM 31.3573 -69.3421 168° South 424 488 35,000  Level FlightAware Transoceanic
Tue 08:54:00 AM 31.2430 -69.3148 168° South 424 488 35,000  Level FlightAware Transoceanic
Tue 08:55:00 AM 31.1287 -69.2876 168° South 424 488 35,000  Level FlightAware Transoceanic
Tue 08:56:00 AM 31.0144 -69.2604 169° South 424 488 35,000  Level FlightAware Transoceanic
Tue 08:57:00 AM 30.9020 -69.2174 162° South  Level FlightAware Approximate
Tue 08:58:00 AM 30.8998 -69.2166 169° South  Level FlightAware Approximate
Tue 08:58:20 AM 30.9000 -69.2333 168° South 471 542 35,000  Level New York Oceanic (ODAPS)
Tue 08:59:00 AM 30.7838 -69.1892 169° South  Level FlightAware Approximate
Tue 09:00:00 AM 30.6679 -69.1618 169° South  Level FlightAware Approximate
Tue 09:01:00 AM 30.5520 -69.1345 169° South  Level FlightAware Approximate
Tue 09:02:00 AM 30.4360 -69.1072 169° South  Level FlightAware Approximate
Tue 09:03:00 AM 30.3201 -69.0800 169° South  Level FlightAware Approximate
Tue 09:04:00 AM 29.8998 -68.9974 169° South 471 542 35,000  Level FlightAware Transoceanic
Tue 09:05:00 AM 29.7747 -68.9682 169° South 471 542 35,000  Level FlightAware Transoceanic
Tue 09:06:00 AM 29.6497 -68.9391 169° South 471 542 35,000  Level FlightAware Transoceanic
Tue 09:07:00 AM 29.5246 -68.9101 169° South 471 542 35,000  Level FlightAware Transoceanic
Tue 09:08:00 AM 29.3995 -68.8812 169° South 471 542 35,000  Level FlightAware Transoceanic
Tue 09:09:00 AM 29.2745 -68.8523 169° South 471 542 35,000  Level FlightAware Transoceanic
Tue 09:10:00 AM 29.1494 -68.8235 169° South 471 542 35,000  Level FlightAware Transoceanic
Tue 09:11:00 AM 29.0243 -68.7948 169° South 471 542 35,000  Level FlightAware Transoceanic
Tue 09:12:00 AM 28.8992 -68.7661 169° South 471 542 35,000  Level FlightAware Transoceanic
Tue 09:13:00 AM 28.7741 -68.7375 169° South 471 542 35,000  Level FlightAware Transoceanic
Tue 09:14:00 AM 28.6490 -68.7090 169° South 471 542 35,000  Level FlightAware Transoceanic
Tue 09:15:00 AM 28.5239 -68.6805 169° South 471 542 35,000  Level FlightAware Transoceanic
Tue 09:16:00 AM 28.3987 -68.6521 169° South 471 542 35,000  Level FlightAware Transoceanic
Tue 09:17:00 AM 28.2736 -68.6238 169° South 471 542 35,000  Level FlightAware Transoceanic
Tue 09:18:00 AM 28.1485 -68.5956 169° South 471 542 35,000  Level FlightAware Transoceanic
Tue 09:19:00 AM 28.0233 -68.5674 169° South 471 542 35,000  Level FlightAware Transoceanic
Tue 09:20:00 AM 27.8982 -68.5392 169° South 471 542 35,000  Level FlightAware Transoceanic
Tue 09:20:51 AM 27.9333 -68.5333 169° South 450 518 35,000  Level New York Oceanic (ODAPS)
Tue 09:21:00 AM 27.7730 -68.5112 169° South 471 542 35,000  Level FlightAware Transoceanic
Tue 09:22:00 AM 27.6479 -68.4832 169° South 471 542 35,000  Level FlightAware Transoceanic
Tue 09:23:00 AM 27.5227 -68.4553 169° South 471 542 35,000  Level FlightAware Transoceanic
Tue 09:24:00 AM 27.3976 -68.4274 169° South 471 542 35,000  Level FlightAware Transoceanic
Tue 09:25:00 AM 27.2724 -68.3996 169° South 471 542 35,000  Level FlightAware Transoceanic
Tue 09:26:00 AM 27.1472 -68.3718 169° South 471 542 35,000  Level FlightAware Transoceanic
Tue 09:27:00 AM 26.9560 -68.3196 169° South 450 518 35,000  Level FlightAware Transoceanic
Tue 09:28:00 AM 26.8338 -68.2931 169° South 450 518 35,000  Level FlightAware Transoceanic
Tue 09:29:00 AM 26.7116 -68.2667 169° South 450 518 35,000  Level FlightAware Transoceanic
Tue 09:30:00 AM 26.5894 -68.2403 169° South 450 518 35,000  Level FlightAware Transoceanic
Tue 09:31:00 AM 26.4672 -68.2141 169° South 450 518 35,000  Level FlightAware Transoceanic
Tue 09:32:00 AM 26.3450 -68.1878 169° South 450 518 35,000  Level FlightAware Transoceanic
Tue 09:33:00 AM 26.2227 -68.1617 169° South 450 518 35,000  Level FlightAware Transoceanic
Tue 09:34:00 AM 26.1005 -68.1355 169° South 450 518 35,000  Level FlightAware Transoceanic
Tue 09:35:00 AM 25.9783 -68.1095 169° South 450 518 35,000  Level FlightAware Transoceanic
Tue 09:36:00 AM 25.8561 -68.0834 169° South 450 518 35,000  Level FlightAware Transoceanic
Tue 09:37:00 AM 25.7338 -68.0575 169° South 450 518 35,000  Level FlightAware Transoceanic
Tue 09:38:00 AM 25.6116 -68.0316 169° South 450 518 35,000  Level FlightAware Transoceanic
Tue 09:39:00 AM 25.4893 -68.0057 169° South 450 518 35,000  Level FlightAware Transoceanic
Tue 09:40:00 AM 25.3671 -67.9799 169° South 450 518 35,000  Level FlightAware Transoceanic
Tue 09:41:00 AM 25.2449 -67.9542 169° South 450 518 35,000  Level FlightAware Transoceanic
Tue 09:42:00 AM 25.1226 -67.9285 169° South 450 518 35,000  Level FlightAware Transoceanic
Tue 09:42:02 AM 25.4667 -68.0000 169° South 438 504 35,000  Level New York Oceanic (ODAPS)
Tue 09:43:00 AM 25.0003 -67.9028 169° South 450 518 35,000  Level FlightAware Transoceanic
Tue 09:44:00 AM 24.8781 -67.8772 169° South 450 518 35,000  Level FlightAware Transoceanic
Tue 09:45:00 AM 24.7558 -67.8517 169° South 450 518 35,000  Level FlightAware Transoceanic
Tue 09:46:00 AM 24.6335 -67.8262 169° South 450 518 35,000  Level FlightAware Transoceanic
Tue 09:47:00 AM 24.5112 -67.8007 169° South 450 518 35,000  Level FlightAware Transoceanic
Tue 09:48:00 AM 24.3867 -67.7748 169° South 438 504 35,000  Level FlightAware Transoceanic
Tue 09:49:00 AM 24.2667 -67.7500 169° South 438 504 35,000  Level FlightAware Transoceanic
Tue 09:50:00 AM 24.1462 -67.7245 169° South 438 504 35,000  Level FlightAware Transoceanic
Tue 09:51:00 AM 24.0258 -67.6991 169° South 438 504 35,000  Level FlightAware Transoceanic
Tue 09:52:00 AM 23.9054 -67.6737 169° South 438 504 35,000  Level FlightAware Transoceanic
Tue 09:53:00 AM 23.7850 -67.6484 169° South 438 504 35,000  Level FlightAware Transoceanic
Tue 09:54:00 AM 23.6646 -67.6231 169° South 438 504 35,000  Level FlightAware Transoceanic
Tue 09:55:00 AM 23.5441 -67.5978 169° South 438 504 35,000  Level FlightAware Transoceanic
Tue 09:56:00 AM 23.4237 -67.5726 169° South 438 504 35,000  Level FlightAware Transoceanic
Tue 09:56:13 AM 23.3833 -67.6000 169° South 450 518 35,000  Level San Juan Center
Tue 09:57:00 AM 23.3032 -67.5475 169° South 438 504 35,000  Level FlightAware Transoceanic
Tue 09:57:13 AM 23.2667 -67.5667 165° South 450 518 35,000  Level San Juan Center
Tue 09:58:00 AM 23.1828 -67.5224 169° South 438 504 35,000  Level FlightAware Transoceanic
Tue 09:58:13 AM 23.1333 -67.5333 167° South 450 518 35,000  Level San Juan Center
Tue 09:59:00 AM 23.0624 -67.4973 169° South 438 504 35,000  Level FlightAware Transoceanic
Tue 09:59:14 AM 23.0167 -67.5167 173° South 440 506 35,000  Level San Juan Center
Tue 10:00:00 AM 22.9419 -67.4723 169° South 438 504 35,000  Level FlightAware Transoceanic
Tue 10:00:14 AM 22.9000 -67.4833 165° South 440 506 35,000  Level San Juan Center
Tue 10:01:00 AM 22.8214 -67.4473 169° South 438 504 35,000  Level FlightAware Transoceanic
Tue 10:01:14 AM 22.7667 -67.4667 173° South 440 506 35,000  Level San Juan Center
Tue 10:02:15 AM 22.6500 -67.4333 165° South 450 518 35,000  Level San Juan Center
Tue 10:03:15 AM 22.5333 -67.4167 172° South 440 506 35,000  Level San Juan Center
Tue 10:04:15 AM 22.4000 -67.3833 167° South 440 506 35,000  Level San Juan Center
Tue 10:05:16 AM 22.2833 -67.3667 172° South 450 518 35,000  Level San Juan Center
Tue 10:06:16 AM 22.1500 -67.3333 167° South 450 518 35,000  Level San Juan Center
Tue 10:07:16 AM 22.0333 -67.3167 172° South 450 518 35,000  Level San Juan Center
Tue 10:08:17 AM 21.9167 -67.2833 165° South 440 506 35,000  Level San Juan Center
Tue 10:09:17 AM 21.7833 -67.2667 173° South 450 518 35,000  Level San Juan Center
Tue 10:10:17 AM 21.6833 -67.2500 171° South 460 529 35,000  Level San Juan Center
Tue 10:11:18 AM 21.5333 -67.2167 168° South 450 518 35,000 50 Level San Juan Center
Tue 10:12:18 AM 21.4167 -67.1833 165° South 450 518 35,100 50 Climbing San Juan Center
Tue 10:13:18 AM 21.3000 -67.1833 180° South 420 483 35,100  Level San Juan Center
Tue 10:14:18 AM 21.1667 -67.2000 187° South 430 495 35,100  Level San Juan Center
Tue 10:15:19 AM 21.0500 -67.2000 180° South 420 483 35,100  Level San Juan Center
Tue 10:16:19 AM 20.9333 -67.2167 188° South 430 495 35,100  Level San Juan Center
Tue 10:17:19 AM 20.8167 -67.2167 180° South 430 495 35,100  Level San Juan Center
Tue 10:18:20 AM 20.7000 -67.2333 188° South 430 495 35,100  Level San Juan Center
Tue 10:19:20 AM 20.5667 -67.2333 180° South 430 495 35,100  Level San Juan Center
Tue 10:20:20 AM 20.4500 -67.2333 180° South 430 495 35,100  Level San Juan Center
Tue 10:21:21 AM 20.3333 -67.2500 188° South 430 495 35,100  Level San Juan Center
Tue 10:22:21 AM 20.2167 -67.2500 180° South 440 506 35,100  Level San Juan Center
Tue 10:23:21 AM 20.0833 -67.2667 187° South 430 495 35,100  Level San Juan Center
Tue 10:24:22 AM 19.9667 -67.2667 180° South 430 495 35,100  Level San Juan Center
Tue 10:25:22 AM 19.8500 -67.2667 180° South 440 506 35,100  Level San Juan Center
Tue 10:26:22 AM 19.7167 -67.2833 187° South 440 506 35,100  Level San Juan Center
Tue 10:27:22 AM 19.6000 -67.2833 180° South 440 506 35,100  Level San Juan Center
Tue 10:28:22 AM 19.4833 -67.3000 188° South 430 495 35,100  Level San Juan Center
Tue 10:29:23 AM 19.3667 -67.3000 180° South 430 495 35,100  Level San Juan Center
Tue 10:30:23 AM 19.2333 -67.3167 187° South 430 495 35,100  Level San Juan Center
Tue 10:31:23 AM 19.1167 -67.3167 180° South 440 506 35,100  Level San Juan Center
Tue 10:32:24 AM 19.0000 -67.3167 180° South 440 506 35,100  Level San Juan Center
Tue 10:33:24 AM 18.8667 -67.3333 187° South 440 506 35,100  Level San Juan Center
Tue 10:34:24 AM 18.7500 -67.3333 180° South 440 506 35,100  Level San Juan Center
Tue 10:35:25 AM 18.6333 -67.3333 180° South 440 506 35,100 446 Level San Juan Center
Tue 10:36:25 AM 18.5000 -67.3500 187° South 440 506 36,000 450 Climbing San Juan Center
Tue 10:37:25 AM 18.3833 -67.3500 180° South 440 506 36,000  Level San Juan Center
Tue 10:38:26 AM 18.2667 -67.3667 188° South 440 506 36,000  Level San Juan Center
Tue 10:39:26 AM 18.1333 -67.3667 180° South 440 506 36,000  Level San Juan Center
Tue 10:40:26 AM 18.0167 -67.3667 180° South 440 506 36,000  Level San Juan Center
Tue 10:41:27 AM 17.8667 -67.3833 186° South 450 518 36,000  Level San Juan Center
Tue 10:42:27 AM 17.7500 -67.3833 180° South 450 518 36,000  Level San Juan Center
Tue 10:43:27 AM 17.6167 -67.3833 180° South 450 518 36,000  Level San Juan Center
Tue 10:44:28 AM 17.5000 -67.4000 188° South 450 518 36,000  Level San Juan Center
Tue 10:45:28 AM 17.3667 -67.4000 180° South 440 506 36,000  Level San Juan Center
Tue 10:46:28 AM 17.2500 -67.4167 188° South 450 518 36,000  Level San Juan Center
Tue 10:47:29 AM 17.1333 -67.4500 195° South 440 506 36,000  Level San Juan Center
Tue 10:48:29 AM 17.0167 -67.4667 188° South 430 495 36,000  Level San Juan Center
Tue 10:49:29 AM 16.8833 -67.4500 173° South 450 518 36,000  Level San Juan Center
Tue 10:50:29 AM 16.7500 -67.4500 180° South 460 529 36,000  Level San Juan Center
Tue 10:51:30 AM 16.6333 -67.4500 180° South 450 518 36,000  Level San Juan Center
Tue 10:52:30 AM 16.5000 -67.4667 187° South 440 506 36,000  Level San Juan Center
Tue 10:53:30 AM 16.3833 -67.4667 180° South 440 506 36,000  Level San Juan Center
Tue 10:54:31 AM 16.2500 -67.4667 180° South 440 506 36,000  Level San Juan Center
Tue 10:55:31 AM 16.1333 -67.4667 180° South 440 506 36,000  Level San Juan Center
Tue 10:56:31 AM 16.0167 -67.4667 180° South 440 506 36,000  Level San Juan Center
Tue 10:57:31 AM 15.9167 -67.4667 180° South 440 506 36,000  Level San Juan Center
Tue 10:59:00 AM 15.7526 -67.5270 202° Southwest  Level FlightAware Approximate
Tue 11:06:00 AM 14.9810 -67.8510 202° Southwest  Level FlightAware Approximate
Tue 11:07:00 AM 14.8708 -67.8971 202° Southwest  Level FlightAware Approximate
Tue 11:08:00 AM 14.7605 -67.9432 202° Southwest  Level FlightAware Approximate
Tue 11:09:00 AM 14.6502 -67.9892 202° Southwest  Level FlightAware Approximate
Tue 11:10:00 AM 14.5399 -68.0351 202° Southwest  Level FlightAware Approximate
Tue 11:11:00 AM 14.4296 -68.0810 202° Southwest  Level FlightAware Approximate
Tue 11:12:00 AM 14.3193 -68.1269 202° Southwest  Level FlightAware Approximate
Tue 11:13:00 AM 14.2090 -68.1727 202° Southwest  Level FlightAware Approximate
Tue 11:14:00 AM 14.1207 -68.2518 227° Southwest  Level FlightAware Approximate
Tue 11:15:00 AM 14.0390 -68.3409 227° Southwest  Level FlightAware Approximate
Tue 11:16:00 AM 13.9554 -68.4280 224° Southwest  Level FlightAware Approximate
Tue 11:17:00 AM 13.8701 -68.5134 224° Southwest  Level FlightAware Approximate
Tue 11:18:00 AM 13.7847 -68.5986 224° Southwest  Level FlightAware Approximate
Tue 11:19:00 AM 13.7031 -68.6871 236° Southwest  Level FlightAware Approximate
Tue 11:20:00 AM 13.6204 -68.7739 221° Southwest  Level FlightAware Approximate
Tue 11:21:00 AM 13.5312 -68.8549 221° Southwest  Level FlightAware Approximate
Tue 11:22:00 AM 13.4473 -68.9414 227° Southwest  Level FlightAware Approximate
Tue 11:23:00 AM 13.3661 -69.0307 227° Southwest  Level FlightAware Approximate
Tue 11:24:00 AM 13.2838 -69.1189 226° Southwest  Level FlightAware Approximate
Tue 11:25:00 AM 13.2008 -69.2064 226° Southwest  Level FlightAware Approximate
Tue 11:26:00 AM 13.1177 -69.2938 226° Southwest  Level FlightAware Approximate
Tue 11:27:00 AM 13.0346 -69.3811 226° Southwest  Level FlightAware Approximate
Tue 11:28:00 AM 12.9544 -69.4712 228° Southwest  Level FlightAware Approximate
Tue 11:29:00 AM 12.8718 -69.5587 221° Southwest  Level FlightAware Approximate
Tue 11:30:00 AM 12.7825 -69.6392 221° Southwest  Level FlightAware Approximate
Tue 11:31:00 AM 12.6980 -69.7246 229° Southwest  Level FlightAware Approximate
Tue 11:32:00 AM 12.6140 -69.8035 232° Southwest  Level FlightAware Approximate
Tue 11:33:00 AM 12.5372 -69.8961 224° Southwest  Level FlightAware Approximate
Tue 11:34:00 AM 12.5000 -70.0019 270° West  Level FlightAware Approximate
Tue 11:35:00 AM 12.5000 -70.0167 270° West  Level FlightAware Approximate
Tue 11:36:00 AM 12.5014 -70.0152 270° West  Level Estimated
Tue 11:37:00 AM 12.5000 -70.0167 270° West  Level FlightAware Approximate
Tue 11:38:00 AM 12.5014 -70.0152 270° West  Level Estimated
Tue 11:39:00 AM 12.5000 -70.0167 270° West  Level FlightAware Approximate

Login

Don't have an account? Register now (free) for customized features, flight alerts, and more!